Time,TemperatureF,DewpointF,PressureIn,WindDirection,WindDirectionDegrees,WindSpeedMPH,WindSpeedGustMPH,Humidity,HourlyPrecipIn,Conditions,Clouds,dailyrainin,SoftwareType,DateUTC
2013-05-13 00:30:00,49.0,39.0,29.96,North,-999,0.0,0.0,69,0.00,,,0.00,,2013-05-13 04:30:00,
2013-05-13 00:53:00,49.0,39.0,29.96,North,-999,0.0,0.0,69,0.00,,,0.00,,2013-05-13 04:53:00,
2013-05-13 01:02:00,49.0,39.0,29.96,North,-999,0.0,0.0,69,0.00,,,0.00,,2013-05-13 05:02:00,
2013-05-13 01:12:00,49.0,39.0,29.96,North,-999,0.0,0.0,69,0.00,,,0.00,,2013-05-13 05:12:00,
2013-05-13 01:22:00,49.0,39.0,29.96,North,-999,0.0,0.0,69,0.00,,,0.00,,2013-05-13 05:22:00,
2013-05-13 03:00:00,46.0,41.0,29.98,North,-999,0.0,0.0,83,0.00,,,0.00,,2013-05-13 07:00:00,
2013-05-13 03:22:00,46.0,41.0,29.98,North,-999,0.0,0.0,83,0.00,,,0.00,,2013-05-13 07:22:00,
2013-05-13 03:32:00,46.0,41.0,29.98,North,-999,0.0,0.0,83,0.00,,,0.00,,2013-05-13 07:32:00,
2013-05-13 03:42:00,46.0,41.0,29.98,North,-999,0.0,0.0,83,0.00,,,0.00,,2013-05-13 07:42:00,
2013-05-13 03:52:00,46.0,41.0,29.98,North,-999,0.0,0.0,83,0.00,,,0.00,,2013-05-13 07:52:00,
2013-05-13 08:30:00,47.0,44.0,30.07,North,-999,0.0,0.0,88,0.00,,,0.00,,2013-05-13 12:30:00,
2013-05-13 08:52:00,47.0,44.0,30.07,North,-999,0.0,0.0,88,0.00,,,0.00,,2013-05-13 12:52:00,
2013-05-13 09:01:00,47.0,44.0,30.07,North,-999,0.0,0.0,88,0.00,,,0.00,,2013-05-13 13:01:00,
2013-05-13 09:11:00,47.0,44.0,30.07,North,-999,0.0,0.0,88,0.00,,,0.00,,2013-05-13 13:11:00,
2013-05-13 09:21:00,47.0,44.0,30.07,North,-999,0.0,0.0,88,0.00,,,0.00,,2013-05-13 13:21:00,
2013-05-13 10:22:00,56.0,39.0,30.07,SSW,202,0.0,2.0,52,0.00,,,0.00,,2013-05-13 14:22:00,
2013-05-13 10:30:00,58.0,34.0,30.08,SSE,157,0.0,4.0,41,0.00,,,0.00,,2013-05-13 14:30:00,
2013-05-13 10:32:00,56.0,39.0,30.07,SSW,202,0.0,2.0,52,0.00,,,0.00,,2013-05-13 14:32:00,
2013-05-13 10:42:00,56.0,39.0,30.07,SSW,202,0.0,2.0,52,0.00,,,0.00,,2013-05-13 14:42:00,
2013-05-13 10:52:00,58.0,34.0,30.08,SSE,157,0.0,4.0,41,0.00,,,0.00,,2013-05-13 14:52:00,
2013-05-13 11:01:00,58.0,34.0,30.08,SSE,157,0.0,4.0,41,0.00,,,0.00,,2013-05-13 15:01:00,
2013-05-13 11:11:00,58.0,34.0,30.08,SSE,157,0.0,4.0,41,0.00,,,0.00,,2013-05-13 15:11:00,
2013-05-13 11:21:00,58.0,34.0,30.08,SSE,157,0.0,4.0,41,0.00,,,0.00,,2013-05-13 15:21:00,
2013-05-13 15:44:00,64.0,32.0,30.00,SSE,157,1.0,7.0,30,0.00,,,0.00,,2013-05-13 19:44:00,
2013-05-13 15:53:00,64.0,32.0,30.00,SSE,157,1.0,7.0,30,0.00,,,0.00,,2013-05-13 19:53:00,
2013-05-13 16:00:00,65.0,32.0,29.99,SSE,157,1.0,5.0,29,0.00,,,0.00,,2013-05-13 20:00:00,
2013-05-13 16:02:00,64.0,32.0,30.00,SSE,157,1.0,7.0,30,0.00,,,0.00,,2013-05-13 20:02:00,
2013-05-13 16:11:00,64.0,32.0,30.00,SSE,157,1.0,7.0,30,0.00,,,0.00,,2013-05-13 20:11:00,
2013-05-13 16:23:00,65.0,32.0,29.99,SSE,157,1.0,5.0,29,0.00,,,0.00,,2013-05-13 20:23:00,
2013-05-13 16:34:00,65.0,32.0,29.99,SSE,157,1.0,5.0,29,0.00,,,0.00,,2013-05-13 20:34:00,
2013-05-13 16:44:00,65.0,32.0,29.99,SSE,157,1.0,5.0,29,0.00,,,0.00,,2013-05-13 20:44:00,
2013-05-13 16:53:00,65.0,32.0,29.99,SSE,157,1.0,5.0,29,0.00,,,0.00,,2013-05-13 20:53:00,
2013-05-13 23:00:00,47.0,42.0,30.09,North,-999,0.0,0.0,82,0.00,,,0.00,,2013-05-14 03:00:00,
2013-05-13 23:21:00,47.0,42.0,30.09,North,-999,0.0,0.0,82,0.00,,,0.00,,2013-05-14 03:21:00,
2013-05-13 23:33:00,47.0,42.0,30.09,North,-999,0.0,0.0,82,0.00,,,0.00,,2013-05-14 03:33:00,
2013-05-13 23:43:00,47.0,42.0,30.09,North,-999,0.0,0.0,82,0.00,,,0.00,,2013-05-14 03:43:00,
2013-05-13 23:53:00,47.0,42.0,30.09,North,-999,0.0,0.0,82,0.00,,,0.00,,2013-05-14 03:53:00,